Time;durP1;ratioP1;P1;durP2;ratioP2;P2;SDS_P1;SDS_P2;PMS_P1;PMS_P2;Temp;Humidity;BMP_temperature;BMP_pressure;BME280_temperature;BME280_humidity;BME280_pressure;Samples;Min_cycle;Max_cycle;Signal;HPM_P1;HPM_P2
2022/07/19 00:01:11;;;;;;;4.63;2.05;;;20.50;92.40;;;;;;5073367;28;20212;-65
2022/07/19 00:03:38;;;;;;;5.55;2.00;;;20.40;92.70;;;;;;5073260;28;20208;-65
2022/07/19 00:06:04;;;;;;;6.32;1.92;;;20.50;92.70;;;;;;5073102;28;20209;-65
2022/07/19 00:08:31;;;;;;;2.78;1.88;;;20.40;92.70;;;;;;5073568;28;20205;-65
2022/07/19 00:10:59;;;;;;;6.43;2.47;;;20.40;92.60;;;;;;5073058;28;20205;-65
2022/07/19 00:13:26;;;;;;;5.20;2.03;;;20.50;92.70;;;;;;5073547;28;20660;-65
2022/07/19 00:15:53;;;;;;;2.28;1.70;;;20.40;92.70;;;;;;5073019;28;20204;-65
2022/07/19 00:18:19;;;;;;;3.45;1.98;;;20.40;92.80;;;;;;5073308;28;20212;-65
2022/07/19 00:20:46;;;;;;;5.35;1.80;;;20.30;93.00;;;;;;5073293;28;20251;-65
2022/07/19 00:23:13;;;;;;;4.55;2.15;;;20.30;93.10;;;;;;5072956;28;20201;-65
2022/07/19 00:25:40;;;;;;;4.82;1.88;;;20.20;93.40;;;;;;5072694;28;20205;-65
2022/07/19 00:28:08;;;;;;;4.10;1.85;;;20.20;93.40;;;;;;5072782;28;20599;-65
2022/07/19 00:30:35;;;;;;;4.78;2.17;;;20.10;93.40;;;;;;5072620;28;20232;-65
2022/07/19 00:33:04;;;;;;;3.05;2.00;;;20.10;93.60;;;;;;5072409;28;20806;-65
2022/07/19 00:35:31;;;;;;;3.17;2.15;;;20.10;93.60;;;;;;5072733;28;20224;-65
2022/07/19 00:37:57;;;;;;;2.17;1.98;;;20.10;93.70;;;;;;5073137;28;20212;-65
2022/07/19 00:40:24;;;;;;;2.35;2.08;;;20.10;93.80;;;;;;5073215;28;20244;-65
2022/07/19 00:42:52;;;;;;;3.17;2.10;;;20.00;94.10;;;;;;5072749;28;20699;-65
2022/07/19 00:45:20;;;;;;;5.70;2.10;;;20.00;94.50;;;;;;5072796;28;20197;-65
2022/07/19 00:47:47;;;;;;;2.03;1.80;;;19.80;94.70;;;;;;5072642;28;20586;-65
2022/07/19 00:50:13;;;;;;;3.53;2.15;;;19.80;94.90;;;;;;5072835;28;20229;-65
2022/07/19 00:52:41;;;;;;;2.95;1.90;;;19.70;95.10;;;;;;5073138;28;20213;-65
2022/07/19 00:55:09;;;;;;;2.58;1.90;;;19.70;95.30;;;;;;5072839;28;20269;-65
2022/07/19 00:57:38;;;;;;;3.65;2.08;;;19.70;95.20;;;;;;5072438;28;20209;-65
2022/07/19 01:00:07;;;;;;;2.95;1.90;;;19.70;95.30;;;;;;5072779;28;20263;-65
2022/07/19 01:02:37;;;;;;;5.32;2.05;;;19.70;95.20;;;;;;5071968;28;20660;-65
2022/07/19 01:05:04;;;;;;;2.40;2.03;;;19.70;95.30;;;;;;5072262;28;20232;-65
2022/07/19 01:07:31;;;;;;;4.45;2.10;;;19.70;95.30;;;;;;5072169;28;20200;-65
2022/07/19 01:09:58;;;;;;;3.33;2.00;;;19.60;95.40;;;;;;5072148;28;20236;-65
2022/07/19 01:12:26;;;;;;;4.38;2.13;;;19.60;95.40;;;;;;5072215;28;20208;-65
2022/07/19 01:14:57;;;;;;;3.25;2.08;;;19.60;95.30;;;;;;5072226;28;20324;-65
2022/07/19 01:17:23;;;;;;;3.97;1.98;;;19.60;95.40;;;;;;5072283;28;20296;-65
2022/07/19 01:19:52;;;;;;;3.60;2.28;;;19.60;95.50;;;;;;5072147;28;20224;-65
2022/07/19 01:22:20;;;;;;;3.22;1.90;;;19.50;95.50;;;;;;5071920;28;20209;-65
2022/07/19 01:24:47;;;;;;;3.38;2.03;;;19.50;95.50;;;;;;5072106;28;20209;-65
2022/07/19 01:27:14;;;;;;;3.53;2.20;;;19.60;95.50;;;;;;5072312;28;20270;-65
2022/07/19 01:29:40;;;;;;;4.95;1.90;;;19.60;95.40;;;;;;5072418;28;20225;-65
2022/07/19 01:32:07;;;;;;;3.15;1.80;;;19.60;95.20;;;;;;5073243;28;20212;-65
2022/07/19 01:34:34;;;;;;;3.70;2.15;;;19.60;95.10;;;;;;5072856;28;20646;-65
2022/07/19 01:37:01;;;;;;;3.10;1.92;;;19.60;95.10;;;;;;5073066;28;20274;-65
2022/07/19 01:39:29;;;;;;;5.30;2.05;;;19.60;95.20;;;;;;5076815;28;20329;-66
2022/07/19 01:41:55;;;;;;;5.60;2.30;;;19.60;95.30;;;;;;5076531;28;20208;-64
2022/07/19 01:44:22;;;;;;;4.03;2.20;;;19.50;95.40;;;;;;5076517;28;20208;-66
2022/07/19 01:46:49;;;;;;;2.53;2.00;;;19.40;95.40;;;;;;5075914;28;20208;-65
2022/07/19 01:49:15;;;;;;;6.25;2.03;;;19.30;95.60;;;;;;5075520;28;20932;-65
2022/07/19 01:51:43;;;;;;;2.80;2.10;;;19.30;95.60;;;;;;5075369;28;20688;-65
2022/07/19 01:54:10;;;;;;;2.28;2.00;;;19.40;95.50;;;;;;5075660;28;20707;-65
2022/07/19 01:56:42;;;;;;;5.88;2.08;;;19.40;95.50;;;;;;5075754;28;20672;-65
2022/07/19 01:59:08;;;;;;;2.08;1.77;;;19.50;95.50;;;;;;5075857;28;20231;-65
2022/07/19 02:01:35;;;;;;;2.42;1.85;;;19.50;95.50;;;;;;5075323;28;20208;-65
2022/07/19 02:04:02;;;;;;;2.25;1.95;;;19.50;95.50;;;;;;5075692;28;20215;-65
2022/07/19 02:06:28;;;;;;;2.90;1.92;;;19.50;95.70;;;;;;5075681;28;20216;-65
2022/07/19 02:08:55;;;;;;;2.05;1.65;;;19.40;95.70;;;;;;5075596;28;20221;-65
2022/07/19 02:11:36;;;;;;;6.35;2.08;;;19.50;95.50;;;;;;5075773;28;20205;-65
2022/07/19 02:14:06;;;;;;;4.15;2.15;;;19.50;95.30;;;;;;5075712;28;20589;-65
2022/07/19 02:16:33;;;;;;;2.38;1.60;;;19.60;95.30;;;;;;5075338;28;20672;-65
2022/07/19 02:18:59;;;;;;;4.68;2.20;;;19.60;95.50;;;;;;5076782;28;20227;-65
2022/07/19 02:21:26;;;;;;;2.80;2.20;;;19.60;95.50;;;;;;5077494;28;20637;-64
2022/07/19 02:23:53;;;;;;;3.15;2.30;;;19.50;95.60;;;;;;5076847;28;20231;-65
2022/07/19 02:26:19;;;;;;;7.53;2.10;;;19.50;95.70;;;;;;5076740;28;20209;-64
2022/07/19 02:28:46;;;;;;;3.63;2.15;;;19.40;95.70;;;;;;5076789;28;20571;-65
2022/07/19 02:31:14;;;;;;;3.65;2.40;;;19.40;96.40;;;;;;5075947;28;20204;-65
2022/07/19 02:33:41;;;;;;;2.63;2.15;;;19.30;96.90;;;;;;5075597;28;20581;-64
2022/07/19 02:36:08;;;;;;;6.55;2.92;;;19.30;97.70;;;;;;5075335;28;20617;-65
2022/07/19 02:38:34;;;;;;;3.40;2.45;;;19.20;97.70;;;;;;5075395;28;20205;-64
2022/07/19 02:41:01;;;;;;;2.90;2.22;;;19.20;97.70;;;;;;5075356;28;20205;-65
2022/07/19 02:43:28;;;;;;;3.30;2.25;;;19.20;97.70;;;;;;5075079;28;20213;-65
2022/07/19 02:45:54;;;;;;;3.08;1.77;;;19.10;97.40;;;;;;5074847;28;20197;-65
2022/07/19 02:48:22;;;;;;;3.20;2.30;;;19.10;97.20;;;;;;5074203;28;20213;-65
2022/07/19 02:50:49;;;;;;;3.85;2.25;;;19.00;97.40;;;;;;5074212;28;20208;-64
2022/07/19 02:53:16;;;;;;;2.55;1.90;;;18.90;97.30;;;;;;5074781;28;20201;-65
2022/07/19 02:55:43;;;;;;;6.80;2.20;;;18.90;97.50;;;;;;5074671;28;20232;-65
2022/07/19 02:58:09;;;;;;;3.03;2.13;;;18.90;97.50;;;;;;5075028;28;20678;-65
2022/07/19 03:00:36;;;;;;;3.97;2.13;;;18.90;97.60;;;;;;5074712;28;20708;-64
2022/07/19 03:05:45;;;;;;;2.45;2.25;;;18.80;98.00;;;;;;5073775;28;20223;-65
2022/07/19 03:08:12;;;;;;;2.50;1.92;;;18.70;98.30;;;;;;5074575;28;20213;-65
2022/07/19 03:10:39;;;;;;;2.80;2.15;;;18.60;98.60;;;;;;5074728;28;20229;-64
2022/07/19 03:13:06;;;;;;;2.70;2.08;;;18.50;98.90;;;;;;5074576;28;20205;-64
2022/07/19 03:15:32;;;;;;;5.95;2.10;;;18.50;99.10;;;;;;5075567;28;20233;-65
2022/07/19 03:17:59;;;;;;;4.05;2.20;;;18.40;99.30;;;;;;5075647;28;20212;-64
2022/07/19 03:20:26;;;;;;;3.58;2.28;;;18.40;99.40;;;;;;5075973;28;20228;-66
2022/07/19 03:22:54;;;;;;;3.85;2.33;;;18.40;99.50;;;;;;5074892;28;20204;-66
2022/07/19 03:25:20;;;;;;;3.58;2.05;;;18.40;99.60;;;;;;5075037;28;20207;-65
2022/07/19 03:27:48;;;;;;;2.30;2.03;;;18.30;99.80;;;;;;5074269;28;20213;-65
2022/07/19 03:30:15;;;;;;;2.60;2.00;;;18.30;99.90;;;;;;5074303;28;20315;-65
2022/07/19 03:32:41;;;;;;;3.33;2.25;;;18.20;99.90;;;;;;5074639;28;20209;-65
2022/07/19 03:35:09;;;;;;;2.60;2.20;;;18.20;99.90;;;;;;5074728;28;20636;-65
2022/07/19 03:37:36;;;;;;;3.67;2.08;;;18.30;99.90;;;;;;5074193;28;20208;-65
2022/07/19 03:40:05;;;;;;;4.18;1.85;;;18.30;99.90;;;;;;5074148;28;20237;-66
2022/07/19 03:42:32;;;;;;;4.60;2.10;;;18.30;99.90;;;;;;5074213;28;20208;-65
2022/07/19 03:44:59;;;;;;;4.13;2.30;;;18.30;99.90;;;;;;5073992;28;20227;-65
2022/07/19 03:47:25;;;;;;;2.67;2.28;;;18.40;99.90;;;;;;5074318;28;20250;-65
2022/07/19 03:49:52;;;;;;;3.83;2.13;;;18.40;99.90;;;;;;5097699;22;20291;-65
2022/07/19 03:52:19;;;;;;;2.55;2.35;;;18.40;99.90;;;;;;5073399;28;20250;-64
2022/07/19 03:54:46;;;;;;;4.97;2.50;;;18.40;99.90;;;;;;5073456;28;20217;-63
2022/07/19 03:57:14;;;;;;;4.53;2.20;;;18.40;99.90;;;;;;5074137;28;20205;-64
2022/07/19 03:59:40;;;;;;;4.07;2.10;;;18.40;99.90;;;;;;5072922;28;20232;-64
2022/07/19 04:02:07;;;;;;;3.55;2.10;;;18.40;99.90;;;;;;5072699;28;20216;-64
2022/07/19 04:04:34;;;;;;;5.10;2.30;;;18.50;99.90;;;;;;5073234;28;20208;-64
2022/07/19 04:07:01;;;;;;;4.03;2.13;;;18.60;99.90;;;;;;5073426;28;20205;-65
2022/07/19 04:09:27;;;;;;;3.00;2.20;;;18.60;99.90;;;;;;5073057;28;20235;-63
2022/07/19 04:11:54;;;;;;;2.47;1.80;;;18.60;99.90;;;;;;5073211;28;20205;-65
2022/07/19 04:14:22;;;;;;;3.70;2.40;;;18.60;99.90;;;;;;5073129;28;20213;-65
2022/07/19 04:16:49;;;;;;;4.18;2.50;;;18.70;99.90;;;;;;5073187;28;20231;-65
2022/07/19 04:19:15;;;;;;;3.92;2.03;;;18.70;99.80;;;;;;5073180;28;20229;-64
2022/07/19 04:21:42;;;;;;;4.32;2.03;;;18.80;99.70;;;;;;5073162;28;20268;-65
2022/07/19 04:24:09;;;;;;;7.78;2.40;;;18.80;99.80;;;;;;5073019;28;20631;-65
2022/07/19 04:26:35;;;;;;;5.72;2.33;;;18.70;99.80;;;;;;5073179;28;20208;-64
2022/07/19 04:29:02;;;;;;;5.53;2.28;;;18.80;99.80;;;;;;5073107;28;20265;-65
2022/07/19 04:31:30;;;;;;;4.38;2.30;;;18.90;99.80;;;;;;5072936;28;20234;-65
2022/07/19 04:33:57;;;;;;;4.45;2.10;;;18.90;99.80;;;;;;5073278;28;20262;-65
2022/07/19 04:36:24;;;;;;;4.85;2.05;;;19.00;99.70;;;;;;5072846;28;20220;-63
2022/07/19 04:38:50;;;;;;;7.55;2.20;;;19.00;99.40;;;;;;5073389;28;20212;-65
2022/07/19 04:41:17;;;;;;;4.28;2.30;;;19.10;99.30;;;;;;5073255;28;20265;-65
2022/07/19 04:43:44;;;;;;;3.50;2.70;;;19.10;99.20;;;;;;5072925;28;20205;-63
2022/07/19 04:46:10;;;;;;;5.20;2.20;;;19.20;99.20;;;;;;5072881;28;20208;-65
2022/07/19 04:48:40;;;;;;;2.85;2.03;;;19.30;99.30;;;;;;5073038;28;20201;-65
2022/07/19 04:51:07;;;;;;;3.55;2.10;;;19.30;99.10;;;;;;5072962;28;20331;-65
2022/07/19 04:53:34;;;;;;;6.03;2.22;;;19.40;99.10;;;;;;5072748;28;20208;-65
2022/07/19 04:56:00;;;;;;;5.88;2.17;;;19.50;99.00;;;;;;5072429;28;20225;-65
2022/07/19 04:58:27;;;;;;;4.45;2.28;;;19.50;98.90;;;;;;5072507;28;20205;-65
2022/07/19 05:00:54;;;;;;;3.00;2.17;;;19.60;98.80;;;;;;5072003;28;20232;-65
2022/07/19 05:03:21;;;;;;;4.32;2.30;;;19.70;98.70;;;;;;5072131;28;20586;-65
2022/07/19 05:05:49;;;;;;;2.85;2.03;;;19.80;98.40;;;;;;5072362;28;20228;-65
2022/07/19 05:08:17;;;;;;;7.25;2.35;;;19.90;98.30;;;;;;5072230;28;20620;-64
2022/07/19 05:10:43;;;;;;;4.97;2.40;;;20.00;98.40;;;;;;5072505;28;20233;-65
2022/07/19 05:13:11;;;;;;;5.47;2.25;;;20.10;97.80;;;;;;5074745;28;20204;-65
2022/07/19 05:15:38;;;;;;;6.50;2.70;;;20.20;97.50;;;;;;5076509;28;20224;-64
2022/07/19 05:18:05;;;;;;;4.57;2.45;;;20.40;97.30;;;;;;5075914;28;20204;-65
2022/07/19 05:20:31;;;;;;;6.88;2.58;;;20.60;96.90;;;;;;5076087;28;20224;-66
2022/07/19 05:22:59;;;;;;;4.97;2.47;;;20.80;96.50;;;;;;5075626;28;20209;-64
2022/07/19 05:25:26;;;;;;;5.75;2.30;;;21.10;96.20;;;;;;5075564;28;20227;-64
2022/07/19 05:27:55;;;;;;;5.38;2.75;;;21.40;95.70;;;;;;5075775;28;20204;-65
2022/07/19 05:30:22;;;;;;;5.13;2.40;;;22.30;94.70;;;;;;5075546;28;20225;-65
2022/07/19 05:32:49;;;;;;;7.18;2.63;;;23.30;93.10;;;;;;5075237;28;20669;-65
2022/07/19 05:35:16;;;;;;;4.97;2.85;;;23.80;92.10;;;;;;5075416;28;20216;-64
2022/07/19 05:37:43;;;;;;;7.25;2.90;;;23.80;91.70;;;;;;5075407;28;20688;-65
2022/07/19 05:40:11;;;;;;;11.70;3.25;;;24.00;91.90;;;;;;5075584;28;20585;-65
2022/07/19 05:42:38;;;;;;;7.97;2.90;;;25.40;90.60;;;;;;5076003;28;20208;-66
2022/07/19 05:45:05;;;;;;;7.63;3.13;;;26.80;85.90;;;;;;5076260;28;20695;-65
2022/07/19 05:47:32;;;;;;;6.40;2.58;;;28.30;79.50;;;;;;5077135;28;20209;-65
2022/07/19 05:49:59;;;;;;;6.20;2.75;;;29.50;72.90;;;;;;5075946;28;20236;-65
2022/07/19 05:52:26;;;;;;;5.43;2.60;;;30.40;70.00;;;;;;5075587;28;20265;-64
2022/07/19 05:54:52;;;;;;;5.10;2.60;;;31.20;66.90;;;;;;5074862;28;20232;-64
2022/07/19 05:57:20;;;;;;;4.70;2.75;;;32.20;62.70;;;;;;5074954;28;20312;-65
2022/07/19 05:59:47;;;;;;;7.13;2.72;;;32.80;59.40;;;;;;5074895;28;20232;-65
2022/07/19 06:02:14;;;;;;;7.82;2.58;;;33.70;57.50;;;;;;5074515;28;20259;-64
2022/07/19 06:04:41;;;;;;;7.93;2.33;;;35.00;53.10;;;;;;5074616;28;20728;-64
2022/07/19 06:07:08;;;;;;;3.42;2.20;;;36.10;52.00;;;;;;5074862;28;20205;-64
2022/07/19 06:09:35;;;;;;;5.78;2.03;;;37.50;49.30;;;;;;5074858;28;20229;-60
2022/07/19 06:12:02;;;;;;;4.78;2.00;;;38.80;45.20;;;;;;5074375;28;20578;-60
2022/07/19 06:14:30;;;;;;;4.63;2.40;;;39.80;43.10;;;;;;5074403;28;20213;-61
2022/07/19 06:16:57;;;;;;;3.47;1.70;;;40.40;41.20;;;;;;5074649;28;20231;-60
2022/07/19 06:19:23;;;;;;;2.70;1.95;;;40.70;40.30;;;;;;5074245;28;20236;-60
2022/07/19 06:21:50;;;;;;;4.95;2.45;;;41.00;40.30;;;;;;5073968;28;20208;-59
2022/07/19 06:24:17;;;;;;;3.40;1.58;;;41.50;39.00;;;;;;5074391;28;20216;-59
2022/07/19 06:26:43;;;;;;;3.58;1.63;;;41.60;38.20;;;;;;5074264;28;20201;-60
2022/07/19 06:29:10;;;;;;;3.33;1.52;;;41.80;37.90;;;;;;5074469;28;20225;-61
2022/07/19 06:31:38;;;;;;;5.07;1.60;;;41.90;38.10;;;;;;5074725;28;20205;-60
2022/07/19 06:34:05;;;;;;;1.95;1.50;;;41.90;36.00;;;;;;5074409;28;20262;-61
2022/07/19 06:36:32;;;;;;;3.33;1.33;;;42.20;36.40;;;;;;5074291;28;20216;-66
2022/07/19 06:38:59;;;;;;;6.40;1.48;;;42.50;35.60;;;;;;5074022;28;20233;-66
2022/07/19 06:41:25;;;;;;;3.20;1.40;;;43.00;34.80;;;;;;5074242;28;20683;-67
2022/07/19 06:43:52;;;;;;;2.45;1.20;;;43.80;33.40;;;;;;5074573;28;20204;-67
2022/07/19 06:46:19;;;;;;;4.55;1.40;;;44.20;33.10;;;;;;5074383;28;20377;-67
2022/07/19 06:48:47;;;;;;;1.92;1.30;;;44.30;32.40;;;;;;5074135;28;20219;-67
2022/07/19 06:51:13;;;;;;;4.55;1.38;;;44.50;31.80;;;;;;5074154;28;20253;-67
2022/07/19 06:53:40;;;;;;;3.38;1.35;;;44.80;31.70;;;;;;5073675;28;20676;-67
2022/07/19 06:56:07;;;;;;;1.63;1.30;;;44.90;31.20;;;;;;5073435;28;20228;-66
2022/07/19 06:58:34;;;;;;;2.20;1.13;;;45.00;31.10;;;;;;5075072;28;20208;-66
2022/07/19 07:01:02;;;;;;;2.72;1.30;;;45.30;30.50;;;;;;5074249;28;20224;-66
2022/07/19 07:03:29;;;;;;;1.85;1.23;;;45.30;30.60;;;;;;5074336;28;20247;-66
2022/07/19 07:05:57;;;;;;;6.18;1.60;;;45.30;30.60;;;;;;5074239;28;20253;-66
2022/07/19 07:08:24;;;;;;;5.00;1.20;;;45.50;30.20;;;;;;5073828;28;20564;-66
2022/07/19 07:10:51;;;;;;;3.75;1.38;;;45.80;29.80;;;;;;5073820;28;20224;-66
2022/07/19 07:13:17;;;;;;;4.22;1.33;;;46.10;29.30;;;;;;5073425;28;20565;-66
2022/07/19 07:15:45;;;;;;;3.25;1.17;;;46.20;29.20;;;;;;5073838;28;20227;-66
2022/07/19 07:18:11;;;;;;;4.53;1.30;;;46.10;29.50;;;;;;5073477;28;20235;-67
2022/07/19 07:20:38;;;;;;;2.63;1.10;;;46.30;29.00;;;;;;5073616;28;20228;-66
2022/07/19 07:23:06;;;;;;;1.92;1.30;;;46.30;28.70;;;;;;5073188;28;20205;-66
2022/07/19 07:25:33;;;;;;;5.13;1.50;;;46.60;29.20;;;;;;5073682;28;20204;-67
2022/07/19 07:28:00;;;;;;;1.95;1.10;;;46.70;28.20;;;;;;5073691;28;20336;-66
2022/07/19 07:30:27;;;;;;;3.95;1.17;;;46.60;28.20;;;;;;5074224;28;20293;-66
2022/07/19 07:32:53;;;;;;;3.22;1.10;;;46.00;28.30;;;;;;5074420;28;20232;-66
2022/07/19 07:35:20;;;;;;;2.42;1.10;;;44.60;28.90;;;;;;5073211;28;20238;-67
2022/07/19 07:37:47;;;;;;;2.53;1.25;;;43.60;29.50;;;;;;5073344;28;20224;-67
2022/07/19 07:40:15;;;;;;;3.60;1.48;;;43.90;29.40;;;;;;5073227;28;20880;-67
2022/07/19 07:42:41;;;;;;;3.38;1.30;;;44.50;29.00;;;;;;5072949;28;20205;-67
2022/07/19 07:45:09;;;;;;;3.67;1.33;;;44.70;28.90;;;;;;5073073;28;20253;-67
2022/07/19 07:47:36;;;;;;;2.72;1.13;;;45.00;29.00;;;;;;5072858;28;20295;-67
2022/07/19 07:50:04;;;;;;;2.50;1.10;;;45.60;28.40;;;;;;5072512;28;20235;-66
2022/07/19 07:52:31;;;;;;;2.50;1.40;;;46.00;28.10;;;;;;5072416;28;20201;-67
2022/07/19 07:54:58;;;;;;;4.35;1.35;;;46.70;27.90;;;;;;5072900;28;20255;-67
2022/07/19 07:57:26;;;;;;;2.97;1.27;;;47.50;27.80;;;;;;5072568;28;20243;-66
2022/07/19 07:59:52;;;;;;;2.15;1.23;;;48.40;27.30;;;;;;5072721;28;20433;-65
2022/07/19 08:02:19;;;;;;;5.00;1.48;;;49.10;27.00;;;;;;5072639;28;20201;-67
2022/07/19 08:04:46;;;;;;;2.60;1.40;;;49.60;26.60;;;;;;5072560;28;20215;-65
2022/07/19 08:07:13;;;;;;;4.40;1.40;;;50.00;26.50;;;;;;5072648;28;20200;-67
2022/07/19 08:09:39;;;;;;;2.78;1.20;;;50.20;25.90;;;;;;5072765;28;20231;-66
2022/07/19 08:12:06;;;;;;;2.88;1.30;;;50.10;25.80;;;;;;5072386;28;20273;-66
2022/07/19 08:14:34;;;;;;;2.65;1.13;;;49.40;25.90;;;;;;5072208;28;20204;-66
2022/07/19 08:17:01;;;;;;;1.73;1.33;;;48.10;26.70;;;;;;5072273;28;20273;-66
2022/07/19 08:19:28;;;;;;;6.65;1.58;;;47.40;27.30;;;;;;5072345;28;20602;-66
2022/07/19 08:21:55;;;;;;;3.08;1.20;;;47.20;27.70;;;;;;5072453;28;20215;-66
2022/07/19 08:24:21;;;;;;;2.28;1.45;;;47.40;27.30;;;;;;5072774;28;20679;-67
2022/07/19 08:26:48;;;;;;;3.53;1.27;;;47.10;27.20;;;;;;5072800;28;20200;-67
2022/07/19 08:29:15;;;;;;;4.20;1.70;;;46.20;27.90;;;;;;5072214;28;20228;-67
2022/07/19 08:31:43;;;;;;;4.93;1.55;;;45.80;28.00;;;;;;5072013;28;20207;-66
2022/07/19 08:34:09;;;;;;;5.32;1.27;;;45.30;28.10;;;;;;5071928;28;20201;-66
2022/07/19 08:36:36;;;;;;;5.72;1.48;;;44.50;29.00;;;;;;5072130;28;20220;-68
2022/07/19 08:39:03;;;;;;;4.65;1.27;;;43.80;29.20;;;;;;5059301;28;20216;-67
2022/07/19 08:41:30;;;;;;;2.67;1.20;;;44.00;29.20;;;;;;5057829;28;20726;-67
2022/07/19 08:43:58;;;;;;;4.40;1.25;;;43.60;29.10;;;;;;5072357;28;20200;-67
2022/07/19 08:46:25;;;;;;;2.72;1.33;;;42.90;29.50;;;;;;5073015;28;20208;-65
2022/07/19 08:48:54;;;;;;;2.90;1.38;;;42.00;30.20;;;;;;5073018;28;20211;-64
2022/07/19 08:51:21;;;;;;;4.82;1.55;;;41.30;30.60;;;;;;5073341;28;20209;-67
2022/07/19 08:53:50;;;;;;;5.07;1.40;;;39.80;32.30;;;;;;5072036;28;20204;-66
2022/07/19 08:59:02;;;;;;;4.80;1.67;;;37.10;34.80;;;;;;5070925;28;20232;-68
2022/07/19 09:01:29;;;;;;;11.05;2.35;;;36.10;35.60;;;;;;5071293;28;20205;-69
2022/07/19 09:04:13;;;;;;;5.32;1.70;;;35.40;36.40;;;;;;5070708;28;20220;-69
2022/07/19 09:06:42;;;;;;;1.70;1.35;;;34.70;36.40;;;;;;5070855;28;20211;-68
2022/07/19 09:09:09;;;;;;;4.85;1.90;;;33.90;37.90;;;;;;5053919;28;20705;-66
2022/07/19 09:11:38;;;;;;;4.63;1.60;;;33.20;38.80;;;;;;5048724;28;20279;-69
2022/07/19 09:14:06;;;;;;;2.10;1.90;;;32.80;39.40;;;;;;5050176;28;20213;-68
2022/07/19 09:16:49;;;;;;;2.53;1.60;;;32.60;40.00;;;;;;5049983;28;20225;-63
2022/07/19 09:19:17;;;;;;;4.13;1.70;;;32.60;40.00;;;;;;5050573;28;20237;-68
2022/07/19 09:21:52;;;;;;;3.20;1.85;;;32.50;38.80;;;;;;5050683;28;20344;-60
2022/07/19 09:24:19;;;;;;;2.88;1.70;;;32.30;38.40;;;;;;5050925;28;20205;-67
2022/07/19 09:26:59;;;;;;;3.35;1.85;;;32.10;38.00;;;;;;5050094;28;20214;-66
2022/07/19 09:29:27;;;;;;;7.40;2.25;;;32.10;38.20;;;;;;5049941;28;20236;-68
2022/07/19 09:32:09;;;;;;;5.03;2.20;;;32.00;37.30;;;;;;5050067;28;20209;-68
2022/07/19 09:34:39;;;;;;;4.03;2.00;;;32.00;37.30;;;;;;5049815;28;20206;-68
2022/07/19 09:37:11;;;;;;;3.50;2.00;;;32.00;37.70;;;;;;5051287;28;20229;-63
2022/07/19 09:39:41;;;;;;;5.07;2.53;;;32.00;38.00;;;;;;5051746;28;20244;-62
2022/07/19 09:42:08;;;;;;;4.38;2.20;;;32.00;38.20;;;;;;5051315;28;20768;-62
2022/07/19 09:44:35;;;;;;;4.55;2.22;;;32.10;37.60;;;;;;5051437;28;20684;-62
2022/07/19 09:47:01;;;;;;;2.45;1.95;;;32.20;37.80;;;;;;5051349;28;20213;-62
2022/07/19 09:49:28;;;;;;;4.55;1.88;;;32.20;37.70;;;;;;5051726;28;20786;-62
2022/07/19 09:51:56;;;;;;;3.72;1.80;;;32.30;38.20;;;;;;5051392;28;20259;-61
2022/07/19 09:54:27;;;;;;;4.75;1.83;;;32.40;37.60;;;;;;5051168;28;20206;-62
2022/07/19 09:56:55;;;;;;;5.43;2.30;;;32.40;38.40;;;;;;5051291;28;20226;-62
2022/07/19 09:59:24;;;;;;;5.85;1.80;;;32.30;38.50;;;;;;5053800;28;20649;-62
2022/07/19 10:01:54;;;;;;;4.15;2.35;;;32.40;38.90;;;;;;5055458;28;20232;-62
2022/07/19 10:04:23;;;;;;;3.05;2.20;;;32.50;38.70;;;;;;5055043;28;20206;-62
2022/07/19 10:06:51;;;;;;;4.30;2.20;;;32.50;38.60;;;;;;5055200;28;20206;-62
2022/07/19 10:09:21;;;;;;;4.45;2.28;;;32.60;38.50;;;;;;5055368;28;20638;-62
2022/07/19 10:11:48;;;;;;;5.32;2.17;;;32.70;38.90;;;;;;5054824;28;20205;-62
2022/07/19 10:14:16;;;;;;;4.22;2.05;;;32.80;38.40;;;;;;5054601;28;20727;-62
2022/07/19 10:17:15;;;;;;;6.53;2.03;;;33.00;37.30;;;;;;5054316;28;20677;-62
2022/07/19 10:19:44;;;;;;;5.15;2.20;;;33.20;38.10;;;;;;5021082;28;20252;-62
2022/07/19 10:22:12;;;;;;;5.03;1.95;;;33.40;38.20;;;;;;5054320;28;20233;-62
2022/07/19 10:24:45;;;;;;;4.13;2.20;;;33.50;37.90;;;;;;5055034;28;20209;-62
2022/07/19 10:27:12;;;;;;;3.88;2.28;;;33.70;37.30;;;;;;5054811;28;20231;-62
2022/07/19 10:29:39;;;;;;;3.58;2.22;;;33.70;37.40;;;;;;5054430;28;20713;-63
2022/07/19 10:32:08;;;;;;;4.30;2.17;;;33.80;37.70;;;;;;5054320;28;20205;-62
2022/07/19 10:34:36;;;;;;;5.05;2.00;;;33.80;37.70;;;;;;5054711;28;20216;-64
2022/07/19 10:37:03;;;;;;;3.50;2.20;;;33.70;37.70;;;;;;5054478;28;20897;-61
2022/07/19 10:39:33;;;;;;;3.17;2.08;;;33.50;37.30;;;;;;5054551;28;20320;-61
2022/07/19 10:42:23;;;;;;;3.75;2.13;;;33.40;37.80;;;;;;5054473;28;20260;-62
2022/07/19 10:45:09;;;;;;;4.32;1.95;;;33.30;37.90;;;;;;5054508;28;20209;-61
2022/07/19 10:47:59;;;;;;;4.20;2.20;;;33.30;38.00;;;;;;5054638;28;20205;-61
2022/07/19 10:50:49;;;;;;;4.07;2.13;;;33.50;38.00;;;;;;5054045;28;20229;-61
2022/07/19 10:53:59;;;;;;;2.97;1.75;;;33.60;38.20;;;;;;5053962;28;20202;-63
2022/07/19 10:56:29;;;;;;;3.75;2.08;;;33.70;37.90;;;;;;5053841;28;20704;-62
2022/07/19 10:58:59;;;;;;;5.43;1.98;;;33.90;37.70;;;;;;5053858;28;20324;-61
2022/07/19 11:01:27;;;;;;;5.10;2.20;;;33.90;37.80;;;;;;5054168;28;20206;-61
2022/07/19 11:03:55;;;;;;;6.25;2.45;;;33.80;38.30;;;;;;5053723;28;20252;-61
2022/07/19 11:06:25;;;;;;;3.38;1.88;;;33.90;37.70;;;;;;5054058;28;20205;-62
2022/07/19 11:08:55;;;;;;;4.22;2.17;;;34.00;37.30;;;;;;5053795;28;20209;-61
2022/07/19 11:11:23;;;;;;;2.78;1.80;;;34.20;36.80;;;;;;5053001;28;20287;-61
2022/07/19 11:13:52;;;;;;;2.45;1.83;;;34.30;36.80;;;;;;5053572;28;20206;-61
2022/07/19 11:16:20;;;;;;;4.43;2.08;;;34.40;36.80;;;;;;5053819;28;20292;-61
2022/07/19 11:18:48;;;;;;;4.03;1.83;;;34.50;37.00;;;;;;5054009;28;20222;-61
2022/07/19 11:21:16;;;;;;;4.07;1.92;;;34.50;36.30;;;;;;5055192;28;20213;-62
2022/07/19 11:23:44;;;;;;;2.53;2.00;;;34.50;36.50;;;;;;5054006;28;20206;-61
2022/07/19 11:26:12;;;;;;;4.22;1.90;;;34.60;36.40;;;;;;5054167;28;20205;-61
2022/07/19 11:28:40;;;;;;;4.30;2.25;;;34.70;35.80;;;;;;5053854;28;20552;-61
2022/07/19 11:31:15;;;;;;;2.75;1.88;;;34.60;36.30;;;;;;5053537;28;20217;-61
2022/07/19 11:33:44;;;;;;;3.30;1.80;;;34.60;36.50;;;;;;5053337;28;20240;-61
2022/07/19 11:36:12;;;;;;;4.05;2.00;;;34.70;36.40;;;;;;5053108;28;20213;-61
2022/07/19 11:38:41;;;;;;;6.05;1.88;;;34.90;36.50;;;;;;5053113;28;20320;-62
2022/07/19 11:41:18;;;;;;;6.00;2.55;;;35.00;35.90;;;;;;5053102;28;20594;-61
2022/07/19 11:43:45;;;;;;;6.22;1.85;;;35.00;35.30;;;;;;5053034;28;20205;-61
2022/07/19 11:46:16;;;;;;;3.78;1.98;;;35.10;35.20;;;;;;5052922;28;20210;-61
2022/07/19 11:48:44;;;;;;;3.45;1.98;;;35.10;35.20;;;;;;5052919;28;20563;-62
2022/07/19 11:51:11;;;;;;;4.95;2.17;;;35.00;35.20;;;;;;5052986;28;20251;-63
2022/07/19 11:53:40;;;;;;;4.28;1.98;;;35.00;35.90;;;;;;5052504;28;20209;-63
2022/07/19 11:56:18;;;;;;;4.38;2.25;;;35.00;36.00;;;;;;5053005;28;20205;-63
2022/07/19 11:58:45;;;;;;;3.42;2.10;;;35.10;35.80;;;;;;5053112;28;20221;-62
2022/07/19 12:01:11;;;;;;;4.72;2.00;;;35.20;35.20;;;;;;5052921;28;20209;-63
2022/07/19 12:03:38;;;;;;;4.97;2.28;;;35.30;35.40;;;;;;5052682;28;20592;-62
2022/07/19 12:06:08;;;;;;;3.33;1.92;;;35.20;36.10;;;;;;5052849;28;20251;-65
2022/07/19 12:08:40;;;;;;;3.25;2.08;;;35.10;35.80;;;;;;5052894;28;20279;-64
2022/07/19 12:11:17;;;;;;;2.83;1.92;;;35.10;35.80;;;;;;5052811;28;20300;-63
2022/07/19 12:13:44;;;;;;;4.40;1.83;;;35.10;35.70;;;;;;5052185;28;20721;-63
2022/07/19 12:16:13;;;;;;;4.05;1.92;;;35.10;35.30;;;;;;5052471;28;20208;-64
2022/07/19 12:18:48;;;;;;;6.20;2.20;;;35.10;35.50;;;;;;5052567;28;20222;-63
2022/07/19 12:21:22;;;;;;;3.85;2.47;;;35.10;35.20;;;;;;5052500;28;20189;-63
2022/07/19 12:24:14;;;;;;;4.82;1.92;;;35.30;34.90;;;;;;5052550;28;20588;-63
2022/07/19 12:26:43;;;;;;;6.72;2.35;;;35.40;35.00;;;;;;5052275;28;20210;-62
2022/07/19 12:29:21;;;;;;;3.78;1.98;;;35.60;35.10;;;;;;5052128;28;20724;-63
2022/07/19 12:31:49;;;;;;;4.22;1.77;;;35.60;34.90;;;;;;5052259;28;20615;-63
2022/07/19 12:34:16;;;;;;;4.38;1.98;;;35.60;35.10;;;;;;5051895;28;20263;-63
2022/07/19 12:36:45;;;;;;;3.55;2.20;;;35.70;35.30;;;;;;5052092;28;20213;-63
2022/07/19 12:39:25;;;;;;;5.32;2.28;;;35.70;35.60;;;;;;5052013;28;20334;-62
2022/07/19 12:42:04;;;;;;;5.93;2.10;;;35.70;35.00;;;;;;5051942;28;20217;-62
2022/07/19 12:44:32;;;;;;;5.03;2.15;;;35.60;35.40;;;;;;5051937;28;20213;-63
2022/07/19 12:47:00;;;;;;;5.38;3.42;;;35.60;35.90;;;;;;5052158;28;20206;-66
2022/07/19 12:49:40;;;;;;;3.75;2.00;;;35.60;36.10;;;;;;5052026;28;20237;-62
2022/07/19 12:52:08;;;;;;;5.25;2.03;;;35.70;36.10;;;;;;5052084;28;20700;-64
2022/07/19 12:54:35;;;;;;;7.35;2.42;;;35.70;35.50;;;;;;5051851;28;20736;-62
2022/07/19 12:57:01;;;;;;;8.52;2.35;;;35.80;35.50;;;;;;5051939;28;20248;-63
2022/07/19 12:59:40;;;;;;;5.18;2.22;;;35.80;35.40;;;;;;5051901;28;20233;-65